Bridgeton, New Jersey
Current Conditions -  °F | °C
As of 10:12 AM on Wednesday 26 Nov 2014 (Local Time) from KMIV Reporting Station
Moderate Rain Moderate Rain  
Wind Chill: 32°   Ceiling: 600
Heat Index: 40°   Visibility: 2.5mi
Dew Point: 38°   Wind: 15mph
Humidity: 93%   Direction: 10°N
Pressure: 30.02"   Gusts: NA
Location:  39.43°N, 75.23°W
Report Text: KMIV 261512Z AUTO 01013KT 2 1/2SM RA BR BKN006 OVC034 04/03 A3002 RMK AO2 PRESFR P0004 T00440033
Loading
Personal Weather Stations






























Interactive Weather Map New forecast layout! Learn more

10-Day Weather Forecast

Advertisements
Track Severe Weather on mobile